Terminal Aerodrome Forecast
Issued by NWS

Home | Current Version | Previous Version | Text Only | Print | Product List | Glossary On
Versions: 1 2 3 4 5 6 7 8 9 10 11 12 13 14
600
FTUS46 KSEW 261736
TAFCLM
TAF
KCLM 261736Z 2618/2718 32009KT P6SM SCT040
     FM262000 31012G18KT P6SM SCT040
     FM270000 30014G20KT P6SM VCSH BKN040
     FM270400 29012G19KT P6SM VCSH OVC035
     FM271200 27010KT P6SM VCSH OVC035=

USA.gov is the U.S. government's official web portal to all federal, state and local government web resources and services.